Time;durP1;ratioP1;P1;durP2;ratioP2;P2;SDS_P1;SDS_P2;PMS_P1;PMS_P2;Temp;Humidity;BMP_temperature;BMP_pressure;BME280_temperature;BME280_humidity;BME280_pressure;Samples;Min_cycle;Max_cycle;Signal;HPM_P1;HPM_P2
2021/01/13 00:00:29;;;;;;;55.03;28.42;;;;;;;-0.70;84.89;98804.24;1710188;83;25699;-53
2021/01/13 00:02:57;;;;;;;58.80;28.73;;;;;;;-0.70;85.03;98803.45;1710446;83;25959;-54
2021/01/13 00:05:24;;;;;;;56.20;29.02;;;;;;;-0.70;85.05;98806.11;1710340;83;26406;-53
2021/01/13 00:07:52;;;;;;;55.45;28.83;;;;;;;-0.69;85.02;98809.83;1710255;83;26227;-49
2021/01/13 00:10:20;;;;;;;59.85;31.50;;;;;;;-0.70;85.16;98804.78;1710344;83;25738;-49
2021/01/13 00:12:47;;;;;;;59.35;29.07;;;;;;;-0.71;85.05;98803.21;1710350;83;25702;-54
2021/01/13 00:15:14;;;;;;;52.13;28.92;;;;;;;-0.72;85.14;98802.39;1710167;83;26212;-53
2021/01/13 00:17:47;;;;;;;56.90;27.90;;;;;;;-0.70;85.24;98804.78;1710344;83;25645;-55
2021/01/13 00:20:14;;;;;;;55.33;29.57;;;;;;;-0.72;85.17;98803.72;1710204;83;26730;-53
2021/01/13 00:22:43;;;;;;;55.78;27.75;;;;;;;-0.71;85.27;98805.33;1710086;83;25657;-55
2021/01/13 00:25:12;;;;;;;61.28;30.20;;;;;;;-0.72;85.20;98799.73;1710414;83;26289;-53
2021/01/13 00:27:39;;;;;;;57.70;30.50;;;;;;;-0.72;85.45;98804.27;1710501;82;26283;-53
2021/01/13 00:30:07;;;;;;;53.30;28.85;;;;;;;-0.72;85.40;98807.70;1710298;83;25653;-55
2021/01/13 00:32:34;;;;;;;53.30;28.60;;;;;;;-0.72;85.67;98806.38;1710364;83;27243;-51
2021/01/13 00:35:01;;;;;;;56.92;30.48;;;;;;;-0.76;85.47;98792.06;1710399;83;25707;-55
2021/01/13 00:37:28;;;;;;;55.23;29.67;;;;;;;-0.71;85.46;98799.23;1710401;82;25774;-57
2021/01/13 00:39:55;;;;;;;59.05;30.68;;;;;;;-0.70;85.50;98804.78;1710308;83;25793;-55
2021/01/13 00:42:21;;;;;;;53.50;28.70;;;;;;;-0.69;85.59;98801.08;1710222;83;25671;-56
2021/01/13 00:44:50;;;;;;;54.80;28.20;;;;;;;-0.70;85.61;98803.45;1710510;83;25798;-51
2021/01/13 00:47:16;;;;;;;57.73;29.57;;;;;;;-0.70;85.55;98800.26;1710514;83;25708;-53
2021/01/13 00:49:43;;;;;;;61.73;30.62;;;;;;;-0.69;85.72;98797.88;1709020;82;25857;-51
2021/01/13 00:52:10;;;;;;;62.15;30.12;;;;;;;-0.69;85.73;98807.72;1709905;83;25658;-54
2021/01/13 00:54:37;;;;;;;59.08;30.32;;;;;;;-0.68;85.71;98807.95;1709966;83;25658;-50
2021/01/13 00:57:06;;;;;;;58.78;31.15;;;;;;;-0.69;85.68;98811.16;1709956;82;25801;-46
2021/01/13 00:59:33;;;;;;;57.23;29.87;;;;;;;-0.69;85.67;98813.02;1710005;83;25833;-50
2021/01/13 01:02:00;;;;;;;58.13;29.37;;;;;;;-0.69;85.72;98816.47;1709960;83;25638;-49
2021/01/13 01:04:27;;;;;;;52.30;29.57;;;;;;;-0.68;85.77;98813.27;1709975;83;26238;-54
2021/01/13 01:06:54;;;;;;;57.50;29.70;;;;;;;-0.69;85.81;98813.81;1709965;83;25726;-53
2021/01/13 01:09:20;;;;;;;51.85;28.67;;;;;;;-0.67;85.77;98815.66;1710016;82;27115;-53
2021/01/13 01:11:48;;;;;;;60.33;31.40;;;;;;;-0.65;85.92;98820.70;1709826;83;25664;-52
2021/01/13 01:14:14;;;;;;;57.65;29.85;;;;;;;-0.64;85.87;98819.65;1709968;83;25637;-51
2021/01/13 01:16:45;;;;;;;60.20;29.77;;;;;;;-0.63;86.19;98814.58;1710064;83;25714;-51
2021/01/13 01:19:12;;;;;;;60.35;29.90;;;;;;;-0.65;85.88;98810.86;1709914;83;25680;-53
2021/01/13 01:21:43;;;;;;;63.17;30.60;;;;;;;-0.63;85.94;98816.73;1710087;83;25930;-52
2021/01/13 01:24:10;;;;;;;54.05;29.30;;;;;;;-0.63;86.01;98814.06;1709889;83;25662;-54
2021/01/13 01:26:49;;;;;;;57.27;29.07;;;;;;;-0.63;86.10;98818.56;1710021;83;25647;-52
2021/01/13 01:29:15;;;;;;;57.48;28.95;;;;;;;-0.64;86.03;98813.80;1710089;83;25952;-52
2021/01/13 01:31:46;;;;;;;56.35;29.92;;;;;;;-0.63;86.17;98811.92;1710042;83;25249;-51
2021/01/13 01:34:21;;;;;;;52.10;28.87;;;;;;;-0.54;86.12;98814.84;1847888;76;32904;-55
2021/01/13 01:36:48;;;;;;;55.92;28.87;;;;;;;-0.60;86.17;98819.36;1817995;78;25960;-52
2021/01/13 01:39:15;;;;;;;56.63;29.32;;;;;;;-0.60;86.22;98810.84;1817992;78;25680;-51
2021/01/13 01:41:43;;;;;;;59.55;30.08;;;;;;;-0.59;86.27;98811.13;1817771;78;25737;-53
2021/01/13 01:44:11;;;;;;;53.87;29.03;;;;;;;-0.58;86.21;98815.89;1817783;78;25794;-52
2021/01/13 01:46:41;;;;;;;57.62;30.20;;;;;;;-0.56;86.22;98812.45;1817965;78;25876;-53
2021/01/13 01:49:12;;;;;;;56.18;30.08;;;;;;;-0.55;86.35;98821.20;1817906;78;25934;-51
2021/01/13 01:51:46;;;;;;;56.33;28.52;;;;;;;-0.55;86.27;98819.34;1817967;78;25759;-53
2021/01/13 01:54:21;;;;;;;53.05;29.72;;;;;;;-0.55;86.28;98818.55;1817895;78;25704;-53
2021/01/13 01:56:53;;;;;;;55.78;28.87;;;;;;;-0.54;86.33;98817.50;1817561;78;25589;-50
2021/01/13 01:59:35;;;;;;;53.90;29.32;;;;;;;-0.54;86.34;98821.48;1818003;78;25673;-54
2021/01/13 02:02:03;;;;;;;50.92;26.80;;;;;;;-0.54;86.47;98820.94;1809192;78;25515;-54
2021/01/13 02:04:32;;;;;;;54.90;28.02;;;;;;;-0.54;86.56;98821.48;1818376;78;26224;-53
2021/01/13 02:07:14;;;;;;;54.03;28.50;;;;;;;-0.53;86.62;98816.41;1818109;78;25799;-53
2021/01/13 02:09:41;;;;;;;57.95;30.12;;;;;;;-0.52;86.69;98818.80;1817905;78;25641;-54
2021/01/13 02:12:14;;;;;;;53.83;28.75;;;;;;;-0.50;86.79;98812.67;1818058;78;26028;-50
2021/01/13 02:14:42;;;;;;;57.75;29.92;;;;;;;-0.47;86.76;98819.32;1818078;78;25670;-52
2021/01/13 02:17:10;;;;;;;55.23;28.45;;;;;;;-0.44;86.75;98820.11;1818026;78;25688;-53
2021/01/13 02:19:51;;;;;;;53.45;28.17;;;;;;;-0.43;86.78;98817.16;1817801;78;25708;-53
2021/01/13 02:22:21;;;;;;;57.62;30.08;;;;;;;-0.41;86.80;98816.38;1817946;78;25616;-52
2021/01/13 02:25:16;;;;;;;53.80;28.40;;;;;;;-0.36;86.80;98821.39;1817957;78;25740;-53
2021/01/13 02:28:13;;;;;;;51.60;28.02;;;;;;;-0.35;86.92;98815.81;1818090;78;25252;-52
2021/01/13 02:30:56;;;;;;;48.95;26.33;;;;;;;-0.34;86.90;98814.75;1817135;78;26244;-52
2021/01/13 02:33:49;;;;;;;47.30;27.30;;;;;;;-0.32;87.08;98816.60;1817864;78;25377;-53
2021/01/13 02:36:56;;;;;;;46.25;24.63;;;;;;;-0.31;87.08;98814.19;1786118;78;25269;-55
2021/01/13 02:39:25;;;;;;;50.03;26.17;;;;;;;-0.28;87.16;98814.97;1816456;78;25573;-52
2021/01/13 02:41:55;;;;;;;48.60;24.43;;;;;;;-0.27;87.12;98809.93;1818103;78;25704;-52
2021/01/13 02:44:29;;;;;;;47.70;25.05;;;;;;;-0.30;87.15;98805.70;1817163;78;25694;-53
2021/01/13 02:47:01;;;;;;;45.50;26.20;;;;;;;-0.22;87.16;98812.56;1817291;78;25668;-50
2021/01/13 02:49:33;;;;;;;47.38;24.63;;;;;;;-0.20;87.30;98817.06;1817301;78;25566;-52
2021/01/13 02:52:11;;;;;;;47.55;25.17;;;;;;;-0.18;87.30;98820.78;1816536;78;25592;-54
2021/01/13 02:54:44;;;;;;;43.30;24.87;;;;;;;-0.17;87.41;98824.22;1797944;78;25568;-51
2021/01/13 02:57:18;;;;;;;44.15;23.20;;;;;;;-0.16;87.31;98827.94;1817559;78;26880;-50
2021/01/13 02:59:48;;;;;;;45.10;24.10;;;;;;;-0.15;87.28;98829.55;1810149;78;25712;-53
2021/01/13 03:02:16;;;;;;;41.42;22.90;;;;;;;-0.14;87.22;98829.78;1817504;78;25609;-53
2021/01/13 03:04:44;;;;;;;42.93;22.75;;;;;;;-0.10;87.30;98833.50;1817338;78;25696;-54
2021/01/13 03:07:14;;;;;;;38.17;22.22;;;;;;;-0.10;87.24;98832.17;1817435;78;25588;-52
2021/01/13 03:09:45;;;;;;;46.28;23.77;;;;;;;-0.10;87.39;98834.83;1817415;78;25688;-50
2021/01/13 03:12:25;;;;;;;40.55;22.45;;;;;;;-0.10;87.23;98832.17;1817168;78;25755;-49
2021/01/13 03:14:55;;;;;;;43.35;22.30;;;;;;;-0.10;87.26;98833.50;1817346;78;26296;-52
2021/01/13 03:17:43;;;;;;;44.18;24.07;;;;;;;-0.10;87.33;98836.67;1817334;78;25676;-53
2021/01/13 03:20:33;;;;;;;43.63;22.73;;;;;;;-0.09;87.28;98839.06;1817303;78;25670;-51
2021/01/13 03:23:25;;;;;;;42.45;22.13;;;;;;;-0.09;87.36;98836.41;1817328;78;25967;-52
2021/01/13 03:25:58;;;;;;;45.08;23.10;;;;;;;-0.09;87.30;98838.27;1817268;78;25764;-53
2021/01/13 03:28:35;;;;;;;41.50;22.62;;;;;;;-0.07;87.33;98844.92;1817280;78;25653;-54
2021/01/13 03:31:02;;;;;;;45.75;22.37;;;;;;;-0.07;87.34;98846.77;1817332;78;25606;-53
2021/01/13 03:33:40;;;;;;;37.78;19.80;;;;;;;-0.07;87.26;98855.55;1820436;78;25820;-54
2021/01/13 03:36:32;;;;;;;33.88;18.73;;;;;;;-0.06;87.41;98842.50;1814198;78;26207;-52
2021/01/13 03:39:06;;;;;;;34.30;19.40;;;;;;;-0.07;87.29;98844.92;1826579;78;25664;-53
2021/01/13 03:41:57;;;;;;;26.73;15.93;;;;;;;-0.06;87.30;98846.49;1826502;78;25698;-52
2021/01/13 03:44:31;;;;;;;29.75;15.88;;;;;;;-0.08;87.20;98848.63;1813857;78;25650;-53
2021/01/13 03:47:09;;;;;;;24.30;13.35;;;;;;;-0.09;87.20;98858.21;1826732;78;25685;-51
2021/01/13 03:49:40;;;;;;;20.25;12.30;;;;;;;-0.10;87.18;98868.57;1801383;78;28005;-54
2021/01/13 03:52:12;;;;;;;21.80;13.50;;;;;;;-0.13;87.17;98868.59;1826585;78;25441;-53
2021/01/13 03:54:43;;;;;;;21.75;12.43;;;;;;;-0.15;87.09;98872.58;1826443;78;25667;-53
2021/01/13 03:57:10;;;;;;;22.22;12.47;;;;;;;-0.14;87.20;98868.87;1826508;78;25646;-53
2021/01/13 03:59:45;;;;;;;19.07;11.70;;;;;;;-0.15;87.19;98877.89;1826653;78;25618;-53
2021/01/13 04:02:18;;;;;;;19.07;10.82;;;;;;;-0.17;87.17;98864.91;1826544;78;26165;-54
2021/01/13 04:05:06;;;;;;;20.50;12.30;;;;;;;-0.18;87.24;98868.62;1826541;78;25653;-53
2021/01/13 04:07:38;;;;;;;20.32;12.00;;;;;;;-0.18;87.22;98862.52;1826572;78;25566;-54
2021/01/13 04:10:12;;;;;;;18.42;12.18;;;;;;;-0.18;87.24;98875.81;1826471;78;25684;-54
2021/01/13 04:12:53;;;;;;;20.12;12.47;;;;;;;-0.18;87.17;98877.92;1798806;78;25602;-54
2021/01/13 04:15:21;;;;;;;18.67;12.53;;;;;;;-0.18;87.23;98881.13;1826579;78;26381;-53
2021/01/13 04:17:48;;;;;;;20.80;12.75;;;;;;;-0.18;87.20;98891.75;1826430;78;25629;-53
2021/01/13 04:20:17;;;;;;;20.72;12.58;;;;;;;-0.18;87.14;98889.88;1826530;78;25696;-53
2021/01/13 04:22:47;;;;;;;18.85;12.05;;;;;;;-0.18;87.12;98897.06;1826632;78;25653;-54
2021/01/13 04:25:16;;;;;;;22.07;12.85;;;;;;;-0.21;86.97;98902.38;1826476;78;25681;-54
2021/01/13 04:27:43;;;;;;;20.50;13.75;;;;;;;-0.24;86.91;98907.72;1826549;78;25753;-54
2021/01/13 04:30:12;;;;;;;21.33;12.98;;;;;;;-0.23;86.97;98908.50;1826555;78;25590;-54
2021/01/13 04:32:39;;;;;;;18.50;11.68;;;;;;;-0.25;86.97;98908.77;1826702;78;25593;-52
2021/01/13 04:35:08;;;;;;;18.32;10.60;;;;;;;-0.26;86.90;98920.45;1823857;77;25637;-50
2021/01/13 04:37:36;;;;;;;17.37;10.50;;;;;;;-0.29;86.69;98921.53;1823782;78;26355;-51
2021/01/13 04:40:26;;;;;;;15.25;10.93;;;;;;;-0.33;86.51;98907.21;1823619;78;25923;-51
2021/01/13 04:43:04;;;;;;;14.75;10.03;;;;;;;-0.38;86.41;98919.97;1821382;78;25231;-52
2021/01/13 04:45:48;;;;;;;16.37;10.48;;;;;;;-0.43;86.38;98921.31;1823620;78;25594;-50
2021/01/13 04:48:20;;;;;;;17.37;11.55;;;;;;;-0.51;86.18;98923.19;1823603;78;25617;-52
2021/01/13 04:50:49;;;;;;;14.23;9.80;;;;;;;-0.58;86.19;98916.31;1823740;78;25666;-51
2021/01/13 04:53:21;;;;;;;;;;;;;;;-0.63;86.18;98932.25;1826234;78;25685;-52
2021/01/13 04:55:56;;;;;;;17.05;10.25;;;;;;;-0.66;86.17;98938.64;1823551;78;25692;-51
2021/01/13 04:58:51;;;;;;;17.00;10.03;;;;;;;-0.71;86.22;98939.97;1823683;78;25621;-53
2021/01/13 05:01:45;;;;;;;20.50;10.20;;;;;;;-0.77;86.13;98938.65;1816734;78;25611;-49
2021/01/13 05:04:29;;;;;;;14.25;8.63;;;;;;;-0.83;86.14;98935.72;1821686;78;25746;-52
2021/01/13 05:07:29;;;;;;;14.83;9.08;;;;;;;-0.85;86.08;98947.66;1788678;78;25969;-51
2021/01/13 05:10:08;;;;;;;15.32;8.15;;;;;;;-0.88;86.07;98949.00;1823681;78;25577;-50
2021/01/13 05:12:56;;;;;;;14.65;8.55;;;;;;;-0.92;85.97;98954.55;1823746;78;25609;-51
2021/01/13 05:15:28;;;;;;;16.60;7.40;;;;;;;-0.94;85.89;98958.02;1823541;78;25620;-53
2021/01/13 05:18:11;;;;;;;10.32;5.80;;;;;;;-0.98;85.70;98964.39;1823645;78;25764;-49
2021/01/13 05:20:43;;;;;;;13.40;6.30;;;;;;;-1.00;85.59;98969.70;1823555;78;26102;-49
2021/01/13 05:23:12;;;;;;;10.03;5.85;;;;;;;-1.05;85.51;98986.42;1823567;78;25693;-51
2021/01/13 05:25:51;;;;;;;9.43;5.17;;;;;;;-1.08;85.39;98990.13;1823707;78;25681;-51
2021/01/13 05:28:23;;;;;;;;;;;;;;;-1.11;85.25;98999.41;1826268;78;25632;-52
2021/01/13 05:30:58;;;;;;;8.23;5.45;;;;;;;-1.15;85.23;99010.29;1823723;78;25586;-50
2021/01/13 05:33:29;;;;;;;9.78;6.58;;;;;;;-1.17;85.25;99012.41;1823231;78;25765;-51
2021/01/13 05:36:01;;;;;;;9.63;5.60;;;;;;;-1.20;85.16;99012.94;1823487;78;25730;-50
2021/01/13 05:39:08;;;;;;;9.35;5.53;;;;;;;-1.24;85.00;99015.83;1823596;78;25597;-52
2021/01/13 05:41:38;;;;;;;8.88;5.08;;;;;;;-1.28;84.89;99016.88;1823528;78;25629;-53
2021/01/13 05:44:07;;;;;;;8.10;5.12;;;;;;;-1.33;84.88;99024.32;1823568;78;25637;-53
2021/01/13 05:46:46;;;;;;;6.42;3.67;;;;;;;-1.34;84.91;99027.23;1823783;78;26646;-53
2021/01/13 05:49:14;;;;;;;10.48;5.53;;;;;;;-1.36;84.96;99030.68;1823539;78;25641;-53
2021/01/13 05:51:45;;;;;;;9.80;5.40;;;;;;;-1.37;85.01;99023.77;1823580;78;25644;-52
2021/01/13 05:54:16;;;;;;;10.95;5.78;;;;;;;-1.37;84.94;99034.38;1823428;78;25611;-52
2021/01/13 05:56:44;;;;;;;11.65;6.12;;;;;;;-1.39;84.97;99029.88;1823341;78;25696;-50
2021/01/13 05:59:14;;;;;;;11.40;6.08;;;;;;;-1.40;84.94;99034.36;1823566;78;25841;-53
2021/01/13 06:01:57;;;;;;;8.98;6.47;;;;;;;-1.39;84.96;99047.11;1823648;78;25692;-51
2021/01/13 06:04:25;;;;;;;11.35;6.37;;;;;;;-1.39;84.95;99046.58;1823602;78;25664;-52
2021/01/13 06:07:22;;;;;;;8.75;6.15;;;;;;;-1.39;84.83;99053.20;1823649;78;25673;-50
2021/01/13 06:09:56;;;;;;;11.63;6.85;;;;;;;-1.40;84.83;99052.92;1823438;78;25534;-50
2021/01/13 06:12:25;;;;;;;15.75;7.45;;;;;;;-1.40;84.81;99064.86;1796116;78;25717;-52
2021/01/13 06:14:55;;;;;;;12.45;7.28;;;;;;;-1.40;84.82;99064.86;1823378;78;25608;-52
2021/01/13 06:17:25;;;;;;;12.63;6.70;;;;;;;-1.41;84.80;99067.27;1823458;78;25700;-51
2021/01/13 06:19:54;;;;;;;10.93;6.35;;;;;;;-1.41;84.70;99066.47;1823377;78;25665;-52
2021/01/13 06:22:32;;;;;;;;;;;;;;;-1.43;84.74;99073.36;1826431;78;25636;-48
2021/01/13 06:25:04;;;;;;;11.73;6.80;;;;;;;-1.44;84.76;99074.41;1823719;78;25940;-49
2021/01/13 06:28:01;;;;;;;11.55;6.35;;;;;;;-1.44;84.76;99073.63;1823522;78;25649;-52
2021/01/13 06:30:31;;;;;;;10.43;6.83;;;;;;;-1.44;84.70;99073.08;1823713;78;25697;-51
2021/01/13 06:33:10;;;;;;;12.65;6.20;;;;;;;-1.45;84.62;99075.45;1823830;78;25669;-51
2021/01/13 06:36:06;;;;;;;9.93;6.90;;;;;;;-1.44;84.59;99078.39;1794165;78;25705;-51
2021/01/13 06:38:59;;;;;;;12.35;6.67;;;;;;;-1.45;84.44;99082.62;1819950;78;26152;-51
2021/01/13 06:41:27;;;;;;;14.58;7.42;;;;;;;-1.46;84.47;99095.09;1820740;78;25630;-50
2021/01/13 06:44:04;;;;;;;12.37;7.57;;;;;;;-1.46;84.38;99092.95;1821297;78;25608;-52
2021/01/13 06:46:33;;;;;;;11.40;7.62;;;;;;;-1.48;84.26;99099.87;1819866;78;25578;-49
2021/01/13 06:49:19;;;;;;;10.90;6.47;;;;;;;-1.48;84.29;99100.38;1821145;78;25618;-47
2021/01/13 06:51:49;;;;;;;12.60;6.83;;;;;;;-1.46;84.40;99102.23;1821077;78;25973;-52
2021/01/13 06:54:19;;;;;;;;;;;;;;;-1.47;84.34;99108.08;1823568;78;25703;-49
2021/01/13 06:56:53;;;;;;;;;;;;;;;-1.46;84.46;99108.87;1822667;78;25585;-54
2021/01/13 06:59:22;;;;;;;12.40;6.60;;;;;;;-1.45;84.54;99102.52;1821161;78;25639;-49
2021/01/13 07:01:56;;;;;;;12.37;6.70;;;;;;;-1.44;84.48;99106.78;1821131;78;26183;-49
2021/01/13 07:04:27;;;;;;;11.88;7.83;;;;;;;-1.46;84.39;99111.02;1821106;78;25754;-52
2021/01/13 07:07:02;;;;;;;12.78;7.30;;;;;;;-1.43;84.40;99121.62;1821016;78;25723;-51
2021/01/13 07:09:38;;;;;;;11.10;7.40;;;;;;;-1.40;84.57;99129.86;1819884;78;26015;-49
2021/01/13 07:12:15;;;;;;;13.40;7.55;;;;;;;-1.37;84.54;99128.55;1820170;78;25646;-51
2021/01/13 07:14:45;;;;;;;15.85;8.35;;;;;;;-1.35;84.45;99125.90;1820197;78;26181;-52
2021/01/13 07:17:21;;;;;;;14.28;8.00;;;;;;;-1.33;84.36;99129.11;1820133;78;26137;-49
2021/01/13 07:19:55;;;;;;;13.72;9.30;;;;;;;-1.31;84.28;99136.81;1820061;78;25768;-52
2021/01/13 07:22:25;;;;;;;14.55;8.38;;;;;;;-1.29;84.28;99136.53;1819529;78;25649;-54
2021/01/13 07:24:54;;;;;;;12.98;7.15;;;;;;;-1.27;84.23;99140.54;1820917;78;25628;-51
2021/01/13 07:27:22;;;;;;;11.73;8.30;;;;;;;-1.25;84.20;99144.27;1821197;78;25664;-48
2021/01/13 07:29:50;;;;;;;10.78;7.47;;;;;;;-1.21;84.27;99150.13;1820984;78;25738;-52
2021/01/13 07:32:27;;;;;;;15.85;8.00;;;;;;;-1.18;84.20;99151.45;1820864;78;25566;-52
2021/01/13 07:37:53;;;;;;;12.95;8.80;;;;;;;-1.05;84.11;99158.94;1815327;77;32802;-45
2021/01/13 07:40:34;;;;;;;13.03;7.90;;;;;;;-1.10;84.00;99162.91;1754477;78;25748;-50
2021/01/13 07:43:10;;;;;;;11.53;8.30;;;;;;;-1.08;83.90;99158.12;1726411;81;25724;-55
2021/01/13 07:45:47;;;;;;;14.93;8.78;;;;;;;-1.03;84.09;99158.69;1715301;83;25605;-51
2021/01/13 07:48:34;;;;;;;13.30;8.03;;;;;;;-1.00;83.95;99168.25;1714526;83;26201;-50
2021/01/13 07:51:08;;;;;;;13.48;8.05;;;;;;;-0.97;83.97;99168.24;1713508;83;25633;-51
2021/01/13 07:53:39;;;;;;;15.60;8.98;;;;;;;-0.91;83.96;99161.11;1715299;83;25683;-44
2021/01/13 07:56:10;;;;;;;14.80;8.83;;;;;;;-0.90;83.75;99175.46;1715276;83;25716;-50
2021/01/13 07:58:37;;;;;;;14.60;10.00;;;;;;;-0.88;83.83;99173.88;1715118;83;25600;-57
2021/01/13 08:01:21;;;;;;;13.18;9.00;;;;;;;-0.85;83.90;99170.16;1715379;83;25692;-48
2021/01/13 08:03:57;;;;;;;15.93;8.80;;;;;;;-0.79;84.13;99174.41;1714056;83;25760;-51
2021/01/13 08:06:34;;;;;;;17.70;9.68;;;;;;;-0.72;84.05;99174.17;1677228;83;25723;-52
2021/01/13 08:09:18;;;;;;;17.10;9.08;;;;;;;-0.67;83.98;99172.86;1715281;83;25980;-51
2021/01/13 08:12:09;;;;;;;19.57;9.48;;;;;;;-0.62;84.02;99173.41;1715141;83;25686;-47
2021/01/13 08:15:12;;;;;;;14.87;8.80;;;;;;;-0.62;83.59;99173.41;1715232;83;25596;-54
2021/01/13 08:17:54;;;;;;;18.30;9.35;;;;;;;-0.62;83.53;99171.54;1715128;83;25637;-51
2021/01/13 08:21:15;;;;;;;18.57;9.25;;;;;;;-0.61;83.59;99163.85;1714519;83;25578;-53
2021/01/13 08:23:48;;;;;;;18.10;9.83;;;;;;;-0.57;83.62;99177.41;1714542;83;25704;-56
2021/01/13 08:26:18;;;;;;;16.85;10.10;;;;;;;-0.59;83.57;99171.02;1714290;83;25669;-55
2021/01/13 08:28:48;;;;;;;20.55;10.40;;;;;;;-0.55;83.74;99183.25;1714521;83;25688;-54
2021/01/13 08:31:24;;;;;;;20.15;11.43;;;;;;;-0.51;83.95;99183.52;1714386;83;25747;-56
2021/01/13 08:34:07;;;;;;;21.77;10.98;;;;;;;-0.45;84.16;99187.79;1714346;83;26238;-60
2021/01/13 08:36:55;;;;;;;22.20;11.63;;;;;;;-0.39;84.21;99191.52;1714663;83;27185;-63
2021/01/13 08:39:31;;;;;;;19.27;12.47;;;;;;;-0.30;84.28;99186.48;1714162;83;25656;-53
2021/01/13 08:42:25;;;;;;;22.07;12.40;;;;;;;-0.26;84.01;99185.42;1714892;83;25833;-51
2021/01/13 08:44:54;;;;;;;22.25;12.90;;;;;;;-0.23;84.04;99187.02;1714776;83;25716;-52
2021/01/13 08:47:26;;;;;;;;;;;;;;;-0.17;84.11;99199.80;1717283;83;26124;-52
2021/01/13 08:50:15;;;;;;;23.92;12.45;;;;;;;-0.12;84.11;99193.16;1714364;83;26322;-48
2021/01/13 08:52:53;;;;;;;28.35;14.85;;;;;;;-0.07;83.95;99201.65;1714424;83;25673;-52
2021/01/13 08:55:21;;;;;;;28.17;14.23;;;;;;;-0.09;83.47;99200.58;1714309;83;26292;-50
2021/01/13 08:58:04;;;;;;;25.05;14.07;;;;;;;-0.07;83.38;99205.64;1714270;83;25985;-47
2021/01/13 09:00:35;;;;;;;23.50;14.00;;;;;;;-0.09;83.23;99209.89;1714329;83;25719;-50
2021/01/13 09:03:06;;;;;;;30.45;15.43;;;;;;;-0.16;82.95;99208.03;1714305;83;25724;-49
2021/01/13 09:05:35;;;;;;;29.90;14.95;;;;;;;-0.15;83.08;99211.47;1714304;83;25711;-50
2021/01/13 09:08:04;;;;;;;;;;;;;;;-0.18;82.92;99220.00;1716866;83;25760;-52
2021/01/13 09:10:51;;;;;;;25.32;13.68;;;;;;;-0.23;82.99;99216.80;1714372;83;25703;-53
2021/01/13 09:13:40;;;;;;;30.25;13.85;;;;;;;-0.26;83.13;99222.09;1714377;83;25734;-57
2021/01/13 09:16:31;;;;;;;25.82;14.03;;;;;;;-0.29;83.25;99216.50;1670834;85;25807;-55
2021/01/13 09:19:04;;;;;;;24.63;13.45;;;;;;;-0.30;83.33;99218.91;1643602;87;25746;-57
2021/01/13 09:21:35;;;;;;;26.73;14.90;;;;;;;-0.31;83.34;99219.42;1670800;84;25625;-56
2021/01/13 09:24:04;;;;;;;30.35;16.42;;;;;;;-0.33;83.44;99228.20;1643529;86;25676;-55
2021/01/13 09:26:36;;;;;;;26.80;15.43;;;;;;;-0.30;83.57;99225.56;1671051;85;25709;-55
2021/01/13 09:29:08;;;;;;;28.47;15.30;;;;;;;-0.31;83.53;99230.59;1642995;86;25826;-57
2021/01/13 09:31:36;;;;;;;28.30;16.30;;;;;;;-0.32;83.59;99227.66;1670467;85;25751;-59
2021/01/13 09:34:05;;;;;;;26.05;14.95;;;;;;;-0.31;83.69;99229.27;1643554;86;26398;-60
2021/01/13 09:36:56;;;;;;;28.25;16.93;;;;;;;-0.32;83.70;99221.83;1670488;84;26309;-64
2021/01/13 09:39:35;;;;;;;31.12;16.85;;;;;;;-0.28;83.91;99226.88;1670077;85;26555;-54
2021/01/13 09:42:05;;;;;;;35.98;18.00;;;;;;;-0.23;83.95;99227.42;1670020;85;26198;-58
2021/01/13 09:44:35;;;;;;;31.65;17.07;;;;;;;-0.17;84.13;99228.22;1670049;85;25865;-55
2021/01/13 09:47:24;;;;;;;34.03;17.15;;;;;;;-0.12;84.09;99224.24;1670060;85;25757;-55
2021/01/13 09:49:57;;;;;;;31.57;16.70;;;;;;;-0.09;84.02;99218.40;1669966;85;25754;-58
2021/01/13 09:52:28;;;;;;;34.25;16.85;;;;;;;-0.09;83.91;99224.51;1670087;85;25741;-54
2021/01/13 09:55:00;;;;;;;31.80;17.32;;;;;;;-0.06;84.04;99227.19;1676334;83;25813;-56
2021/01/13 09:57:31;;;;;;;34.38;16.75;;;;;;;-0.05;83.97;99228.25;1695360;84;26553;-56
2021/01/13 10:00:11;;;;;;;31.20;16.90;;;;;;;-0.05;83.84;99226.92;1698063;83;25705;-54
2021/01/13 10:02:40;;;;;;;36.98;17.60;;;;;;;-0.04;83.86;99231.16;1698289;84;32584;-58
2021/01/13 10:05:09;;;;;;;36.10;17.62;;;;;;;-0.08;83.71;99228.77;1697372;84;25490;-58
2021/01/13 10:07:37;;;;;;;36.50;17.85;;;;;;;-0.09;83.74;99233.02;1682841;84;26340;-57
2021/01/13 10:10:07;;;;;;;32.10;18.07;;;;;;;-0.07;83.91;99232.22;1682649;85;26399;-57
2021/01/13 10:12:49;;;;;;;37.40;17.77;;;;;;;-0.06;83.93;99229.30;1682545;85;26143;-58
2021/01/13 10:15:17;;;;;;;31.23;17.07;;;;;;;-0.01;84.08;99232.50;1698049;84;25756;-60
2021/01/13 10:17:44;;;;;;;32.10;17.30;;;;;;;0.01;83.98;99230.38;1669943;85;25811;-57
2021/01/13 10:20:25;;;;;;;31.95;17.48;;;;;;;0.03;84.02;99236.76;1698084;84;25957;-57
2021/01/13 10:22:52;;;;;;;36.25;17.05;;;;;;;0.05;84.00;99239.44;1669796;85;25897;-58
2021/01/13 10:25:29;;;;;;;33.63;17.55;;;;;;;0.07;83.89;99235.16;1698086;84;26418;-64
2021/01/13 10:27:59;;;;;;;36.05;18.30;;;;;;;0.09;84.00;99241.82;1669419;85;25671;-59
2021/01/13 10:30:27;;;;;;;32.65;18.62;;;;;;;0.13;84.00;99240.75;1698251;84;25886;-54
2021/01/13 10:32:57;;;;;;;32.78;16.48;;;;;;;0.14;83.83;99241.82;1698108;84;25733;-59
2021/01/13 10:35:39;;;;;;;;;;;;;;;0.15;83.79;99239.44;1700590;84;25759;-59
2021/01/13 10:38:07;;;;;;;27.85;14.73;;;;;;;0.20;83.82;99245.27;1698063;84;25728;-56
2021/01/13 10:40:34;;;;;;;34.78;16.40;;;;;;;0.20;83.71;99242.61;1669971;85;26292;-59
2021/01/13 10:43:04;;;;;;;29.23;16.30;;;;;;;0.23;83.77;99246.08;1698203;84;25742;-60
2021/01/13 10:45:33;;;;;;;37.08;17.02;;;;;;;0.28;83.76;99246.61;1653604;85;25762;-58
2021/01/13 10:48:02;;;;;;;25.97;13.50;;;;;;;0.33;83.93;99247.41;1697934;84;25743;-58
2021/01/13 10:50:30;;;;;;;;;;;;;;;0.33;83.48;99250.61;1672458;85;25803;-59
2021/01/13 10:53:02;;;;;;;22.32;11.73;;;;;;;0.31;83.14;99252.73;1697994;84;25973;-57
2021/01/13 10:58:17;;;;;;;24.25;13.15;;;;;;;0.28;83.04;99244.74;1884895;76;32844;-59
2021/01/13 11:00:45;;;;;;;25.55;12.33;;;;;;;0.22;83.06;99248.45;1855895;77;25950;-59
2021/01/13 11:03:13;;;;;;;19.80;10.30;;;;;;;0.23;82.94;99245.28;1856821;77;25672;-59
2021/01/13 11:05:41;;;;;;;17.10;9.20;;;;;;;0.19;82.53;99239.70;1856601;77;26324;-57
2021/01/13 11:08:13;;;;;;;18.45;9.83;;;;;;;0.17;82.62;99241.80;1856705;77;26346;-62
2021/01/13 11:10:40;;;;;;;22.75;10.90;;;;;;;0.17;82.72;99243.13;1856819;77;26378;-56
2021/01/13 11:13:08;;;;;;;18.15;8.95;;;;;;;0.18;82.69;99242.88;1857046;77;25754;-57
2021/01/13 11:15:37;;;;;;;15.98;8.63;;;;;;;0.17;82.42;99235.16;1857156;77;25974;-53
2021/01/13 11:18:09;;;;;;;15.40;7.83;;;;;;;0.16;82.55;99242.34;1857055;77;25856;-57
2021/01/13 11:20:37;;;;;;;19.02;8.73;;;;;;;0.15;82.31;99240.77;1845396;75;25669;-59
2021/01/13 11:23:06;;;;;;;12.25;7.47;;;;;;;0.15;82.53;99244.76;1822525;78;26350;-58
2021/01/13 11:25:36;;;;;;;17.05;7.95;;;;;;;0.20;82.45;99239.16;1822617;78;25702;-56
2021/01/13 11:28:07;;;;;;;15.32;7.22;;;;;;;0.21;82.59;99236.23;1822818;78;26142;-55
2021/01/13 11:30:37;;;;;;;15.13;7.35;;;;;;;0.25;82.45;99232.52;1820901;78;25646;-55
2021/01/13 11:33:07;;;;;;;16.10;7.42;;;;;;;0.30;82.67;99237.83;1822665;78;25688;-56
2021/01/13 11:35:47;;;;;;;13.68;7.72;;;;;;;0.35;82.64;99235.17;1822722;78;26024;-55
2021/01/13 11:38:45;;;;;;;13.50;7.45;;;;;;;0.40;82.68;99235.70;1855548;77;25581;-56
2021/01/13 11:41:45;;;;;;;14.43;7.97;;;;;;;0.43;82.56;99233.84;1814190;78;27681;-60
2021/01/13 11:44:39;;;;;;;20.00;8.73;;;;;;;0.49;82.72;99234.88;1821061;78;25689;-60
2021/01/13 11:47:26;;;;;;;18.42;8.78;;;;;;;0.52;82.70;99229.56;1822691;78;25884;-65
2021/01/13 11:49:59;;;;;;;20.20;10.13;;;;;;;0.56;82.58;99225.30;1822629;78;25694;-60
2021/01/13 11:52:35;;;;;;;16.87;9.98;;;;;;;0.59;82.56;99231.41;1793041;78;25613;-56
2021/01/13 11:55:03;;;;;;;17.75;9.70;;;;;;;0.59;82.29;99231.95;1792816;78;25982;-54
2021/01/13 11:57:35;;;;;;;22.70;11.15;;;;;;;0.57;82.14;99225.56;1822517;78;25653;-58
2021/01/13 12:00:21;;;;;;;19.60;10.58;;;;;;;0.56;82.08;99231.95;1825912;78;25690;-59
2021/01/13 12:02:52;;;;;;;17.45;9.45;;;;;;;0.54;82.08;99227.43;1825760;78;25823;-58